createdAt,value
2022-09-27T00:01:15.352Z,0.20
2022-09-27T00:03:44.098Z,0.43
2022-09-27T00:08:57.731Z,0.30
2022-09-27T00:11:35.878Z,0.20
2022-09-27T00:14:05.509Z,0.22
2022-09-27T00:16:36.540Z,0.45
2022-09-27T00:19:14.951Z,0.50
2022-09-27T00:24:16.412Z,0.40
2022-09-27T00:26:45.153Z,0.20
2022-09-27T00:29:14.643Z,0.30
2022-09-27T00:31:43.153Z,0.30
2022-09-27T00:34:24.799Z,0.35
2022-09-27T00:36:53.957Z,0.35
2022-09-27T00:39:22.310Z,0.40
2022-09-27T00:41:51.001Z,0.40
2022-09-27T00:44:28.441Z,0.30
2022-09-27T00:47:28.328Z,0.32
2022-09-27T00:50:09.785Z,0.60
2022-09-27T00:52:41.195Z,0.20
2022-09-27T00:55:16.648Z,0.50
2022-09-27T00:57:46.933Z,0.52
2022-09-27T01:00:16.296Z,0.40
2022-09-27T01:02:49.760Z,0.45
2022-09-27T01:05:21.257Z,0.50
2022-09-27T01:07:49.605Z,0.40
2022-09-27T01:10:20.139Z,0.30
2022-09-27T01:13:17.797Z,0.60
2022-09-27T01:16:18.592Z,0.43
2022-09-27T01:19:06.363Z,0.55
2022-09-27T01:22:19.043Z,0.55
2022-09-27T01:25:02.704Z,0.20
2022-09-27T01:28:02.423Z,0.40
2022-09-27T01:30:45.387Z,0.40
2022-09-27T01:33:35.374Z,0.35
2022-09-27T01:36:21.805Z,0.40
2022-09-27T01:39:03.264Z,0.32
2022-09-27T01:42:07.108Z,0.30
2022-09-27T01:44:51.378Z,0.40
2022-09-27T01:47:27.603Z,0.38
2022-09-27T01:50:17.432Z,0.30
2022-09-27T01:52:54.539Z,0.30
2022-09-27T01:55:31.479Z,0.30
2022-09-27T01:58:35.627Z,0.57
2022-09-27T02:01:06.672Z,0.55
2022-09-27T02:03:39.797Z,0.30
2022-09-27T02:06:41.955Z,0.20
2022-09-27T02:09:31.611Z,0.35
2022-09-27T02:12:27.263Z,0.30
2022-09-27T02:15:02.864Z,0.30
2022-09-27T02:17:56.417Z,0.30
2022-09-27T02:20:46.307Z,0.30
2022-09-27T02:23:44.053Z,0.20
2022-09-27T02:26:34.057Z,0.30
2022-09-27T02:29:16.282Z,0.20
2022-09-27T02:31:51.316Z,0.30
2022-09-27T02:34:26.333Z,0.30
2022-09-27T02:36:55.465Z,0.30
2022-09-27T02:39:25.004Z,0.35
2022-09-27T02:42:02.336Z,0.30
2022-09-27T02:44:31.681Z,0.35
2022-09-27T02:47:37.556Z,0.28
2022-09-27T02:50:14.802Z,0.28
2022-09-27T02:53:32.906Z,0.40
2022-09-27T02:56:21.140Z,0.30
2022-09-27T02:59:13.537Z,0.57
2022-09-27T03:02:01.744Z,0.30
2022-09-27T03:04:45.540Z,0.30
2022-09-27T03:07:15.049Z,0.20
2022-09-27T03:09:47.696Z,0.20
2022-09-27T03:12:18.803Z,0.47
2022-09-27T03:14:47.282Z,0.32
2022-09-27T03:17:35.282Z,0.90
2022-09-27T03:20:32.595Z,0.40
2022-09-27T03:23:10.304Z,0.60
2022-09-27T03:25:38.646Z,0.20
2022-09-27T03:28:07.000Z,0.50
2022-09-27T03:33:04.032Z,0.50
2022-09-27T03:35:54.939Z,0.30
2022-09-27T03:38:23.213Z,0.15
2022-09-27T03:40:51.883Z,0.30
2022-09-27T03:43:20.083Z,0.45
2022-09-27T03:45:48.602Z,0.20
2022-09-27T03:48:18.586Z,0.30
2022-09-27T03:50:46.909Z,0.20
2022-09-27T03:53:15.170Z,0.20
2022-09-27T03:55:46.678Z,0.20
2022-09-27T03:58:15.436Z,0.20
2022-09-27T04:03:11.581Z,0.30
2022-09-27T04:06:15.193Z,0.35
2022-09-27T04:08:46.231Z,0.45
2022-09-27T04:11:14.709Z,0.30
2022-09-27T04:13:45.877Z,0.20
2022-09-27T04:16:14.901Z,0.30
2022-09-27T04:19:01.881Z,0.20
2022-09-27T04:21:39.837Z,0.25
2022-09-27T04:24:10.523Z,0.38
2022-09-27T04:26:40.678Z,0.20
2022-09-27T04:29:14.409Z,0.30
2022-09-27T04:31:49.468Z,0.20
2022-09-27T04:34:47.115Z,0.30
2022-09-27T04:37:35.431Z,0.20
2022-09-27T04:40:06.402Z,0.25
2022-09-27T04:42:36.337Z,0.43
2022-09-27T04:45:04.786Z,0.30
2022-09-27T04:47:33.099Z,0.30
2022-09-27T04:50:01.499Z,0.20
2022-09-27T04:52:29.673Z,0.38
2022-09-27T04:54:57.839Z,0.20
2022-09-27T04:57:26.109Z,0.10
2022-09-27T04:59:54.392Z,0.20
2022-09-27T05:02:22.835Z,0.20
2022-09-27T05:05:11.906Z,0.20
2022-09-27T05:07:43.626Z,0.20
2022-09-27T05:10:17.393Z,0.32
2022-09-27T05:12:45.688Z,0.20
2022-09-27T05:15:16.399Z,0.20
2022-09-27T05:18:19.532Z,0.20
2022-09-27T05:21:13.514Z,0.20
2022-09-27T05:23:47.909Z,0.15
2022-09-27T05:26:16.803Z,0.13
2022-09-27T05:28:45.071Z,0.25
2022-09-27T05:31:13.750Z,0.22
2022-09-27T05:36:42.833Z,0.20
2022-09-27T05:39:11.452Z,0.20
2022-09-27T05:41:39.886Z,0.20
2022-09-27T05:44:08.394Z,0.30
2022-09-27T05:46:40.722Z,0.10
2022-09-27T05:51:37.320Z,0.20
2022-09-27T05:54:06.677Z,0.30
2022-09-27T05:56:35.050Z,0.20
2022-09-27T05:59:16.457Z,0.20
2022-09-27T06:02:03.157Z,0.15
2022-09-27T06:04:57.481Z,0.30
2022-09-27T06:07:35.216Z,0.13
2022-09-27T06:10:07.526Z,0.20
2022-09-27T06:12:36.257Z,0.20
2022-09-27T06:15:07.963Z,0.15
2022-09-27T06:17:40.349Z,0.20
2022-09-27T06:20:15.478Z,0.20
2022-09-27T06:22:43.777Z,0.20
2022-09-27T06:25:12.097Z,0.10
2022-09-27T06:28:11.427Z,0.20
2022-09-27T06:30:43.638Z,0.25
2022-09-27T06:33:41.299Z,0.22
2022-09-27T06:36:10.232Z,0.20
2022-09-27T06:38:40.754Z,0.20
2022-09-27T06:41:31.969Z,0.13
2022-09-27T06:44:06.196Z,0.20
2022-09-27T06:47:12.086Z,0.20
2022-09-27T06:49:51.959Z,0.20
2022-09-27T06:52:20.318Z,0.20
2022-09-27T06:54:48.707Z,0.30
2022-09-27T06:57:17.030Z,0.20
2022-09-27T06:59:45.406Z,0.40
2022-09-27T07:02:31.820Z,0.20
2022-09-27T07:05:32.371Z,0.10
2022-09-27T07:08:18.507Z,0.20
2022-09-27T07:10:46.749Z,0.30
2022-09-27T07:13:15.066Z,0.20
2022-09-27T07:15:43.479Z,0.30
2022-09-27T07:18:15.854Z,0.15
2022-09-27T07:20:44.131Z,0.20
2022-09-27T07:23:13.066Z,0.20
2022-09-27T07:25:41.425Z,0.10
2022-09-27T07:28:22.045Z,0.20
2022-09-27T07:30:56.300Z,0.10
2022-09-27T07:33:25.244Z,0.20
2022-09-27T07:38:21.471Z,0.20
2022-09-27T07:40:50.500Z,0.13
2022-09-27T07:51:17.606Z,0.17
2022-09-27T07:53:52.178Z,0.40
2022-09-27T07:56:38.425Z,0.30
2022-09-27T07:59:08.771Z,0.20
2022-09-27T08:01:37.262Z,0.30
2022-09-27T08:04:05.729Z,0.20
2022-09-27T08:06:34.571Z,0.20
2022-09-27T08:09:06.006Z,0.20
2022-09-27T08:11:34.912Z,0.20
2022-09-27T08:16:37.081Z,0.20
2022-09-27T08:19:14.383Z,0.20
2022-09-27T08:22:00.758Z,0.30
2022-09-27T08:24:35.079Z,0.20
2022-09-27T08:27:12.330Z,0.20
2022-09-27T08:29:48.720Z,0.20
2022-09-27T08:32:22.793Z,0.20
2022-09-27T08:34:52.309Z,0.17
2022-09-27T08:37:22.766Z,0.28
2022-09-27T08:39:51.558Z,0.20
2022-09-27T08:42:28.813Z,0.20
2022-09-27T08:45:27.138Z,0.22
2022-09-27T08:50:35.060Z,0.30
2022-09-27T08:53:26.967Z,0.25
2022-09-27T08:55:57.841Z,0.20
2022-09-27T08:58:44.187Z,0.30
2022-09-27T09:01:22.136Z,0.30
2022-09-27T09:04:04.633Z,0.30
2022-09-27T09:06:54.988Z,0.22
2022-09-27T09:09:45.567Z,0.30
2022-09-27T09:12:47.241Z,0.20
2022-09-27T09:15:47.330Z,0.30
2022-09-27T09:19:00.077Z,0.20
2022-09-27T09:21:44.836Z,0.35
2022-09-27T09:24:43.845Z,0.63
2022-09-27T09:27:50.121Z,0.43
2022-09-27T09:30:29.881Z,0.32
2022-09-27T09:33:35.375Z,0.30
2022-09-27T09:36:14.102Z,0.30
2022-09-27T09:41:27.104Z,0.35
2022-09-27T09:44:17.582Z,0.30
2022-09-27T09:46:51.599Z,0.30
2022-09-27T09:49:30.586Z,0.20
2022-09-27T09:52:12.388Z,0.10
2022-09-27T09:54:51.453Z,0.50
2022-09-27T09:57:39.436Z,0.40
2022-09-27T10:00:15.383Z,0.25
2022-09-27T10:02:53.320Z,0.30
2022-09-27T10:05:25.477Z,0.20
2022-09-27T10:08:11.865Z,0.30
2022-09-27T10:10:41.368Z,0.20
2022-09-27T10:13:27.901Z,0.20
2022-09-27T10:16:05.274Z,0.30
2022-09-27T10:18:39.052Z,0.20
2022-09-27T10:21:16.231Z,0.55
2022-09-27T10:24:23.029Z,0.25
2022-09-27T10:27:09.698Z,0.17
2022-09-27T10:29:40.890Z,0.20
2022-09-27T10:32:27.093Z,0.20
2022-09-27T10:35:31.096Z,0.10
2022-09-27T10:38:26.886Z,0.20
2022-09-27T10:41:26.415Z,0.10
2022-09-27T10:44:17.720Z,0.20
2022-09-27T10:46:56.558Z,0.20
2022-09-27T10:50:07.540Z,0.10
2022-09-27T10:53:21.296Z,0.30
2022-09-27T10:55:59.990Z,0.17
2022-09-27T10:58:37.864Z,0.15
2022-09-27T11:01:12.020Z,0.10
2022-09-27T11:04:01.703Z,0.10
2022-09-27T11:06:32.908Z,0.28
2022-09-27T11:09:19.044Z,0.30
2022-09-27T11:11:50.441Z,0.10
2022-09-27T11:14:25.762Z,0.20
2022-09-27T11:17:06.584Z,0.20
2022-09-27T11:19:56.614Z,0.50
2022-09-27T11:22:43.402Z,0.30
2022-09-27T11:25:36.424Z,0.20
2022-09-27T11:28:25.770Z,0.20
2022-09-27T11:31:23.735Z,0.20
2022-09-27T11:34:18.207Z,0.22
2022-09-27T11:37:11.486Z,0.10
2022-09-27T11:40:05.071Z,0.17
2022-09-27T11:42:55.661Z,0.17
2022-09-27T11:49:32.445Z,0.20
2022-09-27T11:52:19.603Z,0.10
2022-09-27T11:55:15.625Z,0.38
2022-09-27T11:58:03.383Z,0.10
2022-09-27T12:01:13.209Z,0.10
2022-09-27T12:03:52.786Z,0.30
2022-09-27T12:06:49.438Z,0.20
2022-09-27T12:09:36.395Z,0.10
2022-09-27T12:12:06.828Z,0.13
2022-09-27T12:14:46.749Z,0.20
2022-09-27T12:17:39.530Z,0.30
2022-09-27T12:20:28.557Z,0.25
2022-09-27T12:23:01.394Z,0.10
2022-09-27T12:25:55.306Z,0.10
2022-09-27T12:29:06.311Z,0.10
2022-09-27T12:32:02.098Z,0.10
2022-09-27T12:34:43.557Z,0.43
2022-09-27T12:37:21.384Z,0.30
2022-09-27T12:40:35.693Z,0.20
2022-09-27T12:43:35.269Z,0.10
2022-09-27T12:46:52.545Z,0.10
2022-09-27T12:50:03.566Z,0.10
2022-09-27T12:52:41.895Z,0.15
2022-09-27T12:58:12.532Z,0.20
2022-09-27T13:01:16.783Z,0.20
2022-09-27T13:04:07.762Z,0.20
2022-09-27T13:07:20.464Z,0.17
2022-09-27T13:09:57.322Z,0.20
2022-09-27T13:12:30.817Z,0.13
2022-09-27T13:15:08.342Z,0.13
2022-09-27T13:17:40.585Z,0.08
2022-09-27T13:20:45.227Z,0.20
2022-09-27T13:23:42.421Z,0.20
2022-09-27T13:26:44.682Z,0.13
2022-09-27T13:29:27.611Z,0.17
2022-09-27T13:31:59.649Z,0.10
2022-09-27T13:34:53.471Z,0.10
2022-09-27T13:37:47.995Z,0.10
2022-09-27T13:40:29.362Z,0.10
2022-09-27T13:43:14.098Z,0.13
2022-09-27T13:46:05.216Z,0.20
2022-09-27T13:51:30.525Z,0.20
2022-09-27T13:54:10.586Z,0.20
2022-09-27T13:56:43.310Z,0.40
2022-09-27T13:59:37.766Z,0.20
2022-09-27T14:02:32.258Z,0.10
2022-09-27T14:05:03.328Z,0.20
2022-09-27T14:07:43.687Z,0.20
2022-09-27T14:10:21.754Z,0.10
2022-09-27T14:12:53.239Z,0.20
2022-09-27T14:15:32.876Z,0.10
2022-09-27T14:18:04.424Z,0.38
2022-09-27T14:20:45.084Z,0.20
2022-09-27T14:23:32.943Z,0.20
2022-09-27T14:26:01.593Z,0.20
2022-09-27T14:28:32.532Z,0.10
2022-09-27T14:31:15.346Z,0.22
2022-09-27T14:34:09.119Z,0.30
2022-09-27T14:36:40.226Z,0.22
2022-09-27T14:39:33.616Z,0.25
2022-09-27T14:42:17.696Z,0.52
2022-09-27T14:44:47.150Z,0.40
2022-09-27T14:47:20.207Z,0.40
2022-09-27T14:49:49.876Z,0.45
2022-09-27T14:52:27.760Z,0.15
2022-09-27T14:55:07.605Z,0.30
2022-09-27T14:57:37.367Z,0.30
2022-09-27T15:00:22.387Z,0.15
2022-09-27T15:02:53.602Z,0.10
2022-09-27T15:05:28.991Z,0.30
2022-09-27T15:07:59.525Z,0.20
2022-09-27T15:10:31.573Z,0.20
2022-09-27T15:13:02.326Z,0.30
2022-09-27T15:15:34.586Z,0.20
2022-09-27T15:18:04.744Z,0.20
2022-09-27T15:20:36.638Z,0.38
2022-09-27T15:23:06.304Z,0.20
2022-09-27T15:25:42.589Z,0.20
2022-09-27T15:28:14.133Z,0.20
2022-09-27T15:30:51.943Z,0.10
2022-09-27T15:33:29.694Z,0.10
2022-09-27T15:36:01.190Z,0.30
2022-09-27T15:38:31.852Z,0.10
2022-09-27T15:41:05.644Z,0.10
2022-09-27T15:43:51.102Z,0.10
2022-09-27T15:46:29.351Z,0.30
2022-09-27T15:49:21.544Z,0.22
2022-09-27T15:51:52.639Z,0.17
2022-09-27T15:54:22.577Z,0.20
2022-09-27T15:56:55.422Z,0.20
2022-09-27T15:59:29.641Z,0.20
2022-09-27T16:02:07.736Z,0.20
2022-09-27T16:07:06.938Z,0.28
2022-09-27T16:09:35.139Z,0.10
2022-09-27T16:12:03.279Z,0.60
2022-09-27T16:14:31.466Z,0.13
2022-09-27T16:17:02.435Z,0.20
2022-09-27T16:19:30.837Z,0.20
2022-09-27T16:21:58.906Z,0.20
2022-09-27T16:24:27.163Z,0.20
2022-09-27T16:26:55.718Z,0.20
2022-09-27T16:29:23.990Z,0.10
2022-09-27T16:31:52.198Z,0.10
2022-09-27T16:34:20.851Z,0.43
2022-09-27T16:36:50.837Z,0.10
2022-09-27T16:39:19.074Z,0.20
2022-09-27T16:41:47.328Z,0.10
2022-09-27T16:44:16.127Z,0.15
2022-09-27T16:46:45.557Z,0.20
2022-09-27T16:49:14.016Z,0.30
2022-09-27T16:51:42.289Z,0.20
2022-09-27T16:54:10.588Z,0.10
2022-09-27T16:56:39.087Z,0.20
2022-09-27T16:59:07.248Z,0.20
2022-09-27T17:01:35.686Z,0.25
2022-09-27T17:04:04.080Z,0.30
2022-09-27T17:06:32.437Z,0.30
2022-09-27T17:09:04.171Z,0.22
2022-09-27T17:11:32.913Z,0.20
2022-09-27T17:16:29.241Z,0.20
2022-09-27T17:18:57.575Z,0.20
2022-09-27T17:21:25.953Z,0.13
2022-09-27T17:23:54.256Z,0.30
2022-09-27T17:26:24.257Z,0.30
2022-09-27T17:28:53.688Z,0.30
2022-09-27T17:31:22.077Z,0.17
2022-09-27T17:33:57.455Z,0.30
2022-09-27T17:36:29.019Z,0.10
2022-09-27T17:38:58.936Z,0.60
2022-09-27T17:41:29.429Z,0.20
2022-09-27T17:44:01.818Z,0.30
2022-09-27T17:46:32.454Z,0.30
2022-09-27T17:49:00.947Z,0.30
2022-09-27T17:51:29.273Z,0.30
2022-09-27T17:53:57.790Z,0.52
2022-09-27T17:56:26.214Z,0.30
2022-09-27T17:58:56.723Z,0.30
2022-09-27T18:01:26.213Z,0.25
2022-09-27T18:03:59.615Z,0.40
2022-09-27T18:06:29.281Z,0.30
2022-09-27T18:08:58.122Z,0.50
2022-09-27T18:11:27.484Z,0.40
2022-09-27T18:13:57.296Z,0.40
2022-09-27T18:16:25.672Z,0.30
2022-09-27T18:18:53.877Z,0.47
2022-09-27T18:21:22.450Z,0.50
2022-09-27T18:23:51.899Z,0.60
2022-09-27T18:26:21.325Z,0.43
2022-09-27T18:28:51.028Z,0.45
2022-09-27T18:31:21.211Z,0.52
2022-09-27T18:33:50.390Z,0.40
2022-09-27T18:36:21.279Z,0.80
2022-09-27T18:38:59.762Z,0.28
2022-09-27T18:41:30.640Z,0.45
2022-09-27T18:44:01.425Z,0.38
2022-09-27T18:46:35.957Z,0.60
2022-09-27T18:49:07.320Z,0.57
2022-09-27T18:51:35.812Z,0.43
2022-09-27T18:54:12.057Z,0.50
2022-09-27T18:56:40.345Z,0.57
2022-09-27T18:59:10.482Z,1.00
2022-09-27T19:01:40.865Z,0.95
2022-09-27T19:04:11.025Z,1.45
2022-09-27T19:06:40.298Z,1.35
2022-09-27T19:09:09.488Z,0.88
2022-09-27T19:14:05.451Z,1.33
2022-09-27T19:16:34.182Z,1.50
2022-09-27T19:21:30.648Z,1.35
2022-09-27T19:23:58.869Z,1.70
2022-09-27T19:26:28.060Z,1.48
2022-09-27T19:28:56.592Z,0.85
2022-09-27T19:31:26.899Z,0.88
2022-09-27T19:33:59.645Z,1.17
2022-09-27T19:36:29.098Z,1.08
2022-09-27T19:38:57.405Z,1.25
2022-09-27T19:41:28.905Z,0.95
2022-09-27T19:43:57.670Z,1.35
2022-09-27T19:46:26.743Z,1.05
2022-09-27T19:48:55.358Z,1.33
2022-09-27T19:51:26.630Z,1.10
2022-09-27T19:53:55.799Z,1.17
2022-09-27T19:56:24.669Z,1.20
2022-09-27T19:58:53.308Z,1.00
2022-09-27T20:03:52.846Z,1.10
2022-09-27T20:06:22.561Z,0.80
2022-09-27T20:08:51.006Z,1.20
2022-09-27T20:11:21.461Z,1.08
2022-09-27T20:13:52.196Z,0.65
2022-09-27T20:16:27.213Z,1.00
2022-09-27T20:18:58.353Z,1.42
2022-09-27T20:21:29.272Z,1.17
2022-09-27T20:23:58.238Z,1.10
2022-09-27T20:26:31.591Z,0.98
2022-09-27T20:29:01.289Z,1.02
2022-09-27T20:31:32.538Z,1.38
2022-09-27T20:34:02.046Z,0.90
2022-09-27T20:36:35.729Z,1.15
2022-09-27T20:39:06.675Z,1.23
2022-09-27T20:41:40.091Z,0.73
2022-09-27T20:44:16.695Z,0.98
2022-09-27T20:46:45.963Z,0.93
2022-09-27T20:49:19.171Z,1.08
2022-09-27T20:51:48.484Z,0.80
2022-09-27T20:54:16.695Z,1.10
2022-09-27T20:56:47.672Z,0.80
2022-09-27T20:59:21.425Z,0.75
2022-09-27T21:01:52.204Z,1.00
2022-09-27T21:04:20.914Z,0.95
2022-09-27T21:06:49.314Z,1.15
2022-09-27T21:09:17.923Z,0.70
2022-09-27T21:11:50.094Z,0.73
2022-09-27T21:14:18.967Z,0.70
2022-09-27T21:16:47.320Z,1.13
2022-09-27T21:19:15.537Z,0.70
2022-09-27T21:21:43.870Z,0.73
2022-09-27T21:24:12.401Z,0.70
2022-09-27T21:26:40.567Z,0.77
2022-09-27T21:29:10.737Z,0.52
2022-09-27T21:31:39.180Z,0.70
2022-09-27T21:34:07.919Z,0.68
2022-09-27T21:39:07.446Z,0.50
2022-09-27T21:41:36.063Z,0.57
2022-09-27T21:44:05.721Z,0.77
2022-09-27T21:46:34.085Z,0.50
2022-09-27T21:49:02.853Z,0.40
2022-09-27T21:51:37.979Z,0.40
2022-09-27T21:54:08.789Z,0.50
2022-09-27T21:56:39.388Z,0.43
2022-09-27T21:59:10.660Z,0.85
2022-09-27T22:01:39.386Z,0.40
2022-09-27T22:04:07.839Z,0.52
2022-09-27T22:06:38.875Z,0.47
2022-09-27T22:09:09.833Z,0.57
2022-09-27T22:11:40.784Z,0.40
2022-09-27T22:14:08.983Z,0.50
2022-09-27T22:16:37.929Z,0.57
2022-09-27T22:19:06.336Z,0.40
2022-09-27T22:21:37.308Z,0.50
2022-09-27T22:24:08.754Z,0.50
2022-09-27T22:26:39.456Z,0.57
2022-09-27T22:29:08.257Z,0.32
2022-09-27T22:31:37.840Z,0.50
2022-09-27T22:34:08.645Z,0.50
2022-09-27T22:36:36.942Z,0.73
2022-09-27T22:39:05.254Z,0.40
2022-09-27T22:41:33.439Z,0.55
2022-09-27T22:44:01.933Z,0.40
2022-09-27T22:46:30.192Z,0.70
2022-09-27T22:48:58.559Z,0.68
2022-09-27T22:51:26.842Z,0.47
2022-09-27T22:53:55.043Z,0.40
2022-09-27T22:56:23.463Z,0.50
2022-09-27T22:58:51.745Z,0.47
2022-09-27T23:01:23.095Z,0.30
2022-09-27T23:03:52.735Z,0.40
2022-09-27T23:06:22.201Z,0.30
2022-09-27T23:08:51.560Z,0.28
2022-09-27T23:11:22.402Z,0.35
2022-09-27T23:13:51.574Z,0.40
2022-09-27T23:16:22.069Z,0.20
2022-09-27T23:18:56.352Z,0.30
2022-09-27T23:21:25.976Z,0.30
2022-09-27T23:23:55.923Z,0.30
2022-09-27T23:26:25.778Z,0.40
2022-09-27T23:29:03.816Z,0.30
2022-09-27T23:31:33.240Z,0.20
2022-09-27T23:34:04.442Z,0.32
2022-09-27T23:36:32.844Z,0.60
2022-09-27T23:39:01.729Z,0.40
2022-09-27T23:41:29.934Z,0.50
2022-09-27T23:43:58.213Z,0.15
2022-09-27T23:46:26.531Z,0.28
2022-09-27T23:48:54.669Z,0.20
2022-09-27T23:51:22.833Z,0.25
2022-09-27T23:53:51.151Z,0.30
2022-09-27T23:56:19.259Z,0.30
2022-09-27T23:58:47.886Z,0.20
